createdAt,value
2017-11-12T00:01:59.607Z,19.23
2017-11-12T00:04:06.167Z,19.53
2017-11-12T00:06:13.863Z,19.24
2017-11-12T00:08:19.552Z,19.28
2017-11-12T00:10:25.659Z,19.00
2017-11-12T00:12:32.052Z,19.11
2017-11-12T00:14:38.277Z,18.95
2017-11-12T00:16:47.042Z,18.82
2017-11-12T00:18:53.456Z,19.18
2017-11-12T00:21:01.519Z,18.72
2017-11-12T00:23:07.657Z,19.05
2017-11-12T00:25:14.796Z,19.17
2017-11-12T00:27:20.697Z,19.40
2017-11-12T00:29:26.972Z,18.98
2017-11-12T00:31:32.553Z,19.14
2017-11-12T00:33:38.132Z,19.43
2017-11-12T00:35:44.063Z,19.32
2017-11-12T00:37:50.306Z,19.14
2017-11-12T00:39:58.055Z,19.32
2017-11-12T00:42:05.741Z,19.31
2017-11-12T00:44:11.295Z,19.34
2017-11-12T00:46:16.699Z,19.15
2017-11-12T00:48:22.592Z,19.29
2017-11-12T00:50:28.580Z,19.28
2017-11-12T00:52:34.472Z,19.46
2017-11-12T00:54:41.002Z,19.46
2017-11-12T00:56:47.219Z,19.01
2017-11-12T00:58:54.693Z,18.85
2017-11-12T01:01:02.131Z,18.85
2017-11-12T01:03:08.491Z,18.68
2017-11-12T01:05:14.499Z,18.78
2017-11-12T01:07:21.226Z,19.07
2017-11-12T01:09:28.735Z,19.11
2017-11-12T01:11:35.582Z,19.17
2017-11-12T01:13:45.777Z,19.03
2017-11-12T01:15:52.329Z,18.74
2017-11-12T01:18:01.113Z,18.99
2017-11-12T01:20:09.179Z,19.21
2017-11-12T01:22:16.322Z,19.10
2017-11-12T01:24:24.695Z,18.69
2017-11-12T01:26:32.658Z,18.84
2017-11-12T01:28:38.180Z,18.99
2017-11-12T01:30:45.768Z,19.12
2017-11-12T01:32:52.592Z,18.78
2017-11-12T01:35:02.964Z,18.90
2017-11-12T01:37:08.701Z,19.03
2017-11-12T01:39:18.102Z,18.99
2017-11-12T01:41:23.727Z,18.86
2017-11-12T01:43:39.608Z,18.88
2017-11-12T01:45:50.538Z,18.89
2017-11-12T01:47:59.155Z,19.07
2017-11-12T01:50:10.079Z,18.99
2017-11-12T01:52:23.304Z,19.09
2017-11-12T01:54:31.928Z,19.20
2017-11-12T01:56:39.039Z,19.26
2017-11-12T01:58:45.963Z,18.87
2017-11-12T02:00:54.051Z,18.90
2017-11-12T02:03:01.789Z,18.99
2017-11-12T02:05:14.363Z,18.72
2017-11-12T02:07:20.119Z,18.81
2017-11-12T02:09:25.788Z,19.08
2017-11-12T02:11:34.309Z,18.97
2017-11-12T02:13:40.260Z,19.06
2017-11-12T02:15:49.004Z,18.78
2017-11-12T02:17:55.131Z,18.72
2017-11-12T02:20:05.865Z,18.83
2017-11-12T02:22:14.880Z,18.67
2017-11-12T02:24:22.767Z,18.62
2017-11-12T02:26:30.826Z,18.88
2017-11-12T02:28:41.758Z,18.88
2017-11-12T02:30:48.241Z,18.68
2017-11-12T02:32:55.270Z,18.62
2017-11-12T02:35:03.589Z,18.74
2017-11-12T02:37:14.283Z,18.69
2017-11-12T02:39:20.833Z,18.82
2017-11-12T02:41:26.935Z,18.97
2017-11-12T02:43:33.236Z,19.27
2017-11-12T02:45:44.533Z,19.18
2017-11-12T02:47:50.540Z,18.75
2017-11-12T02:50:00.871Z,18.90
2017-11-12T02:52:09.970Z,18.68
2017-11-12T02:54:16.017Z,18.95
2017-11-12T02:56:21.712Z,18.90
2017-11-12T02:58:30.604Z,18.87
2017-11-12T03:00:37.208Z,18.76
2017-11-12T03:02:44.281Z,18.77
2017-11-12T03:04:52.984Z,19.02
2017-11-12T03:07:02.353Z,18.86
2017-11-12T03:09:38.949Z,18.89
2017-11-12T03:11:50.605Z,18.90
2017-11-12T03:13:58.265Z,19.12
2017-11-12T03:16:12.683Z,18.86
2017-11-12T03:18:18.177Z,19.47
2017-11-12T03:20:28.545Z,19.29
2017-11-12T03:22:34.101Z,19.05
2017-11-12T03:24:39.564Z,19.12
2017-11-12T03:26:46.519Z,19.00
2017-11-12T03:28:52.625Z,19.04
2017-11-12T03:31:02.254Z,19.18
2017-11-12T03:33:08.116Z,19.13
2017-11-12T03:35:13.876Z,19.03
2017-11-12T03:37:19.470Z,18.95
2017-11-12T03:39:25.025Z,19.17
2017-11-12T03:41:31.708Z,19.04
2017-11-12T03:43:37.297Z,19.09
2017-11-12T03:45:43.842Z,19.20
2017-11-12T03:47:50.469Z,19.73
2017-11-12T03:49:57.062Z,19.86
2017-11-12T03:52:05.857Z,20.03
2017-11-12T03:54:12.645Z,20.50
2017-11-12T03:56:18.102Z,20.50
2017-11-12T03:58:23.731Z,20.70
2017-11-12T04:00:29.481Z,20.92
2017-11-12T04:02:34.919Z,20.90
2017-11-12T04:04:40.828Z,20.79
2017-11-12T04:06:47.814Z,20.97
2017-11-12T04:08:53.823Z,20.59
2017-11-12T04:13:23.656Z,20.53
2017-11-12T04:15:33.230Z,20.30
2017-11-12T04:20:06.315Z,20.26
2017-11-12T04:22:13.559Z,20.51
2017-11-12T04:24:19.239Z,20.85
2017-11-12T04:26:24.802Z,20.91
2017-11-12T04:28:30.671Z,20.74
2017-11-12T04:30:36.171Z,20.82
2017-11-12T04:32:43.505Z,20.71
2017-11-12T04:34:50.011Z,20.47
2017-11-12T04:36:57.681Z,19.88
2017-11-12T04:39:04.834Z,19.64
2017-11-12T04:41:10.366Z,19.64
2017-11-12T04:43:17.669Z,19.37
2017-11-12T04:45:23.693Z,19.68
2017-11-12T04:47:29.776Z,19.57
2017-11-12T04:49:36.507Z,19.44
2017-11-12T04:51:42.108Z,19.61
2017-11-12T04:53:47.839Z,19.59
2017-11-12T04:55:55.043Z,19.61
2017-11-12T04:58:04.073Z,19.48
2017-11-12T05:00:10.677Z,19.55
2017-11-12T05:02:16.695Z,19.66
2017-11-12T05:04:23.321Z,20.16
2017-11-12T05:06:32.013Z,20.14
2017-11-12T05:08:37.646Z,19.99
2017-11-12T05:10:43.318Z,19.86
2017-11-12T05:12:50.222Z,20.26
2017-11-12T05:14:59.780Z,20.46
2017-11-12T05:17:07.313Z,20.37
2017-11-12T05:19:15.569Z,20.49
2017-11-12T05:21:21.470Z,20.29
2017-11-12T05:23:27.420Z,20.24
2017-11-12T05:26:06.859Z,20.50
2017-11-12T05:28:12.332Z,20.21
2017-11-12T05:30:20.325Z,20.11
2017-11-12T05:32:27.203Z,19.84
2017-11-12T05:34:33.028Z,20.21
2017-11-12T05:36:38.752Z,20.08
2017-11-12T05:38:46.314Z,20.01
2017-11-12T05:40:54.071Z,20.03
2017-11-12T05:43:04.596Z,20.03
2017-11-12T05:45:10.226Z,19.72
2017-11-12T05:47:18.835Z,19.44
2017-11-12T05:49:24.887Z,19.79
2017-11-12T05:51:34.017Z,19.65
2017-11-12T05:53:39.340Z,19.58
2017-11-12T05:55:45.183Z,19.63
2017-11-12T05:57:51.497Z,19.57
2017-11-12T05:59:59.914Z,19.74
2017-11-12T06:02:09.735Z,19.69
2017-11-12T06:04:16.269Z,19.86
2017-11-12T06:06:26.276Z,19.55
2017-11-12T06:08:33.442Z,19.38
2017-11-12T06:10:45.886Z,19.38
2017-11-12T06:12:52.503Z,19.38
2017-11-12T06:15:02.921Z,19.59
2017-11-12T06:17:18.907Z,19.42
2017-11-12T06:19:26.988Z,19.45
2017-11-12T06:21:35.321Z,19.38
2017-11-12T06:23:42.666Z,19.27
2017-11-12T06:25:56.239Z,19.28
2017-11-12T06:28:07.177Z,19.20
2017-11-12T06:30:16.027Z,19.18
2017-11-12T06:32:25.854Z,19.06
2017-11-12T06:35:01.543Z,19.15
2017-11-12T06:37:10.133Z,19.61
2017-11-12T06:39:16.821Z,19.15
2017-11-12T06:41:23.231Z,19.39
2017-11-12T06:43:29.730Z,19.25
2017-11-12T06:45:36.021Z,19.38
2017-11-12T06:47:44.560Z,19.26
2017-11-12T06:49:57.151Z,19.42
2017-11-12T06:52:08.744Z,19.52
2017-11-12T06:54:20.543Z,19.68
2017-11-12T06:56:38.773Z,19.57
2017-11-12T06:58:45.436Z,19.58
2017-11-12T07:00:53.129Z,19.46
2017-11-12T07:03:00.372Z,19.12
2017-11-12T07:05:07.568Z,18.96
2017-11-12T07:07:15.470Z,18.96
2017-11-12T07:09:20.957Z,19.21
2017-11-12T07:11:29.306Z,19.09
2017-11-12T07:13:34.802Z,19.14
2017-11-12T07:15:40.554Z,19.10
2017-11-12T07:17:47.161Z,18.86
2017-11-12T07:19:55.241Z,18.91
2017-11-12T07:22:08.200Z,18.93
2017-11-12T07:24:14.972Z,19.07
2017-11-12T07:26:32.207Z,18.52
2017-11-12T07:28:38.678Z,18.60
2017-11-12T07:30:44.454Z,18.51
2017-11-12T07:32:55.647Z,18.69
2017-11-12T07:35:04.580Z,19.14
2017-11-12T07:37:10.491Z,19.16
2017-11-12T07:39:20.710Z,19.53
2017-11-12T07:41:27.991Z,19.89
2017-11-12T07:43:36.752Z,20.19
2017-11-12T07:45:42.389Z,20.13
2017-11-12T07:47:48.794Z,20.45
2017-11-12T07:49:57.346Z,19.97
2017-11-12T07:52:08.375Z,20.10
2017-11-12T07:54:13.868Z,20.32
2017-11-12T07:56:20.659Z,20.26
2017-11-12T07:58:27.050Z,20.26
2017-11-12T08:00:32.585Z,20.37
2017-11-12T08:02:38.232Z,20.33
2017-11-12T08:04:43.986Z,20.45
2017-11-12T08:06:50.689Z,20.45
2017-11-12T08:08:59.061Z,20.59
2017-11-12T08:11:08.578Z,20.59
2017-11-12T08:13:15.581Z,20.69
2017-11-12T08:15:23.432Z,20.56
2017-11-12T08:17:32.846Z,20.44
2017-11-12T08:21:03.363Z,20.50
2017-11-12T08:23:15.488Z,20.53
2017-11-12T08:27:35.080Z,20.80
2017-11-12T08:29:46.972Z,20.85
2017-11-12T08:31:55.723Z,20.55
2017-11-12T08:34:05.151Z,20.70
2017-11-12T08:36:13.686Z,20.61
2017-11-12T08:38:21.087Z,20.85
2017-11-12T08:40:29.311Z,20.81
2017-11-12T08:45:10.955Z,20.87
2017-11-12T08:47:29.573Z,20.46
2017-11-12T08:52:09.045Z,20.89
2017-11-12T08:54:21.407Z,20.52
2017-11-12T08:56:42.807Z,20.58
2017-11-12T08:59:08.331Z,20.37
2017-11-12T09:01:19.293Z,20.60
2017-11-12T09:03:33.233Z,20.43
2017-11-12T09:05:45.894Z,20.79
2017-11-12T09:07:54.296Z,20.73
2017-11-12T09:10:05.506Z,20.67
2017-11-12T09:12:29.852Z,20.89
2017-11-12T09:17:08.627Z,20.69
2017-11-12T09:19:15.338Z,20.74
2017-11-12T09:21:22.241Z,20.79
2017-11-12T09:23:30.949Z,20.67
2017-11-12T09:25:40.653Z,20.73
2017-11-12T09:27:52.116Z,20.71
2017-11-12T09:30:01.936Z,20.75
2017-11-12T09:32:14.060Z,20.20
2017-11-12T09:34:25.774Z,20.09
2017-11-12T09:36:33.333Z,20.27
2017-11-12T09:38:40.456Z,20.25
2017-11-12T09:43:34.823Z,20.55
2017-11-12T09:45:56.613Z,20.54
2017-11-12T09:50:16.035Z,20.07
2017-11-12T09:52:29.535Z,20.66
2017-11-12T09:54:38.221Z,20.69
2017-11-12T09:56:45.379Z,20.35
2017-11-12T09:58:54.193Z,20.41
2017-11-12T10:01:06.564Z,20.28
2017-11-12T10:03:14.196Z,20.11
2017-11-12T10:05:23.207Z,20.42
2017-11-12T10:07:33.091Z,19.82
2017-11-12T10:09:40.811Z,19.85
2017-11-12T10:11:53.413Z,19.72
2017-11-12T10:19:46.240Z,19.60
2017-11-12T10:21:52.372Z,20.21
2017-11-12T10:24:00.488Z,20.57
2017-11-12T10:26:06.533Z,20.56
2017-11-12T10:28:17.225Z,20.51
2017-11-12T10:30:30.086Z,20.51
2017-11-12T10:32:37.437Z,20.50
2017-11-12T10:36:55.840Z,20.26
2017-11-12T10:39:09.826Z,20.46
2017-11-12T10:41:29.691Z,20.63
2017-11-12T10:43:52.532Z,20.86
2017-11-12T10:46:21.495Z,20.46
2017-11-12T10:48:38.217Z,20.45
2017-11-12T10:51:05.906Z,20.34
2017-11-12T10:53:23.976Z,20.35
2017-11-12T10:55:34.920Z,20.87
2017-11-12T10:57:49.004Z,20.59
2017-11-12T11:02:16.904Z,20.74
2017-11-12T11:04:56.291Z,20.66
2017-11-12T11:07:17.481Z,20.59
2017-11-12T11:09:23.606Z,20.50
2017-11-12T11:11:29.904Z,20.61
2017-11-12T11:13:35.615Z,20.72
2017-11-12T11:15:41.332Z,20.75
2017-11-12T11:17:48.229Z,20.73
2017-11-12T11:19:54.851Z,20.68
2017-11-12T11:22:04.486Z,20.62
2017-11-12T11:24:12.118Z,20.63
2017-11-12T11:26:18.488Z,20.82
2017-11-12T11:28:25.566Z,20.55
2017-11-12T11:30:33.213Z,20.67
2017-11-12T11:32:39.046Z,20.58
2017-11-12T11:34:44.870Z,20.68
2017-11-12T11:36:51.237Z,20.70
2017-11-12T11:38:58.145Z,20.64
2017-11-12T11:41:06.316Z,20.64
2017-11-12T11:43:12.253Z,20.54
2017-11-12T11:45:18.288Z,20.67
2017-11-12T11:47:24.918Z,20.75
2017-11-12T11:49:30.872Z,20.86
2017-11-12T11:51:36.720Z,20.60
2017-11-12T11:53:42.567Z,20.69
2017-11-12T11:55:49.917Z,20.29
2017-11-12T11:57:57.418Z,20.57
2017-11-12T12:00:09.824Z,20.69
2017-11-12T12:02:16.933Z,20.76
2017-11-12T12:04:22.788Z,20.82
2017-11-12T12:06:28.479Z,20.89
2017-11-12T12:08:41.002Z,20.75
2017-11-12T12:11:08.646Z,20.47
2017-11-12T12:13:15.227Z,20.37
2017-11-12T12:15:26.956Z,20.58
2017-11-12T12:17:53.015Z,20.91
2017-11-12T12:20:10.487Z,20.67
2017-11-12T12:22:24.204Z,20.10
2017-11-12T12:24:33.712Z,20.49
2017-11-12T12:26:45.107Z,20.81
2017-11-12T12:28:52.013Z,20.32
2017-11-12T12:31:01.601Z,20.51
2017-11-12T12:33:10.019Z,20.67
2017-11-12T12:35:22.849Z,20.68
2017-11-12T12:39:46.779Z,20.49
2017-11-12T12:42:00.347Z,20.02
2017-11-12T12:44:07.242Z,19.99
2017-11-12T12:46:14.701Z,20.01
2017-11-12T12:48:23.339Z,20.05
2017-11-12T12:50:32.181Z,20.26
2017-11-12T12:52:38.460Z,20.16
2017-11-12T12:54:46.040Z,20.28
2017-11-12T12:57:09.746Z,20.00
2017-11-12T12:59:16.475Z,20.15
2017-11-12T13:01:32.950Z,20.26
2017-11-12T13:08:49.168Z,19.87
2017-11-12T13:11:06.280Z,19.90
2017-11-12T13:13:13.214Z,20.21
2017-11-12T13:15:18.984Z,20.46
2017-11-12T13:17:25.071Z,19.75
2017-11-12T13:20:55.727Z,20.05
2017-11-12T13:23:01.386Z,20.11
2017-11-12T13:25:09.737Z,19.99
2017-11-12T13:27:20.740Z,19.73
2017-11-12T13:29:27.060Z,19.56
2017-11-12T13:31:33.413Z,19.57
2017-11-12T13:33:40.083Z,19.84
2017-11-12T13:35:47.006Z,19.87
2017-11-12T13:37:53.374Z,20.21
2017-11-12T13:40:03.143Z,20.28
2017-11-12T13:42:08.925Z,20.06
2017-11-12T13:44:16.241Z,19.84
2017-11-12T13:46:22.980Z,19.95
2017-11-12T13:48:32.631Z,20.08
2017-11-12T13:50:43.244Z,20.23
2017-11-12T13:52:49.393Z,20.33
2017-11-12T13:54:55.971Z,20.08
2017-11-12T13:57:05.662Z,19.85
2017-11-12T13:59:11.585Z,20.04
2017-11-12T14:04:59.409Z,19.72
2017-11-12T14:07:06.958Z,19.38
2017-11-12T14:09:12.637Z,19.29
2017-11-12T14:11:20.340Z,19.18
2017-11-12T14:13:27.603Z,19.42
2017-11-12T14:15:33.912Z,19.22
2017-11-12T14:17:39.932Z,19.36
2017-11-12T14:19:46.813Z,19.33
2017-11-12T14:21:53.312Z,19.62
2017-11-12T14:24:06.509Z,19.31
2017-11-12T14:26:18.057Z,19.05
2017-11-12T14:28:24.120Z,19.15
2017-11-12T14:30:29.955Z,18.82
2017-11-12T14:32:36.907Z,18.93
2017-11-12T14:34:43.804Z,19.05
2017-11-12T14:36:50.189Z,19.05
2017-11-12T14:38:58.372Z,18.79
2017-11-12T14:41:04.889Z,18.87
2017-11-12T14:43:10.967Z,19.19
2017-11-12T14:45:17.331Z,19.00
2017-11-12T14:47:23.322Z,18.89
2017-11-12T14:49:36.256Z,18.81
2017-11-12T14:51:42.228Z,18.67
2017-11-12T14:53:48.774Z,19.06
2017-11-12T14:55:55.307Z,19.25
2017-11-12T14:58:06.019Z,18.91
2017-11-12T15:00:12.413Z,19.03
2017-11-12T15:02:20.798Z,18.97
2017-11-12T15:04:27.066Z,18.93
2017-11-12T15:06:32.857Z,19.08
2017-11-12T15:08:39.266Z,19.20
2017-11-12T15:10:45.945Z,18.83
2017-11-12T15:12:52.347Z,19.02
2017-11-12T15:14:58.285Z,18.57
2017-11-12T15:17:07.618Z,18.76
2017-11-12T15:19:14.343Z,18.90
2017-11-12T15:21:20.816Z,18.84
2017-11-12T15:23:27.996Z,18.94
2017-11-12T15:25:34.107Z,19.22
2017-11-12T15:27:39.943Z,19.21
2017-11-12T15:29:52.288Z,18.93
2017-11-12T15:32:02.259Z,19.14
2017-11-12T15:34:09.192Z,19.07
2017-11-12T15:36:15.482Z,18.99
2017-11-12T15:38:21.550Z,18.77
2017-11-12T15:40:27.588Z,18.76
2017-11-12T15:42:34.195Z,18.66
2017-11-12T15:44:40.514Z,18.95
2017-11-12T15:46:47.558Z,18.89
2017-11-12T15:48:54.044Z,19.00
2017-11-12T15:51:02.012Z,19.16
2017-11-12T15:53:08.342Z,19.10
2017-11-12T15:55:14.688Z,18.94
2017-11-12T15:57:21.028Z,19.28
2017-11-12T15:59:28.063Z,19.56
2017-11-12T16:01:34.168Z,19.24
2017-11-12T16:03:40.456Z,18.56
2017-11-12T16:05:47.359Z,18.69
2017-11-12T16:08:00.100Z,18.66
2017-11-12T16:10:12.055Z,18.98
2017-11-12T16:12:19.794Z,19.18
2017-11-12T16:14:26.179Z,19.52
2017-11-12T16:16:32.520Z,19.02
2017-11-12T16:18:42.204Z,18.97
2017-11-12T16:20:51.983Z,18.72
2017-11-12T16:23:07.211Z,19.36
2017-11-12T16:25:16.897Z,19.10
2017-11-12T16:27:25.435Z,18.63
2017-11-12T16:44:44.115Z,19.10
2017-11-12T16:57:23.345Z,19.28
2017-11-12T17:10:56.994Z,19.45
2017-11-12T17:13:04.150Z,19.47
2017-11-12T17:15:09.973Z,19.62
2017-11-12T17:17:17.720Z,19.35
2017-11-12T17:19:23.428Z,19.09
2017-11-12T17:21:30.630Z,18.88
2017-11-12T17:23:44.899Z,19.10
2017-11-12T17:25:57.283Z,19.54
2017-11-12T17:28:05.091Z,19.49
2017-11-12T17:30:11.317Z,19.54
2017-11-12T17:32:20.763Z,20.06
2017-11-12T17:34:28.511Z,19.58
2017-11-12T17:36:38.617Z,19.56
2017-11-12T18:36:49.964Z,19.86
2017-11-12T18:39:02.837Z,20.13
2017-11-12T18:41:17.064Z,20.21
2017-11-12T18:43:33.686Z,20.46
2017-11-12T18:45:45.104Z,20.14
2017-11-12T18:48:24.567Z,19.77
2017-11-12T18:50:39.663Z,19.96
2017-11-12T18:53:26.668Z,20.08
2017-11-12T18:55:38.128Z,19.71
2017-11-12T18:57:49.667Z,20.09
2017-11-12T18:59:57.110Z,19.94
2017-11-12T19:02:10.002Z,20.10
2017-11-12T19:04:19.244Z,19.87
2017-11-12T19:06:29.625Z,19.89
2017-11-12T19:08:36.746Z,19.70
2017-11-12T19:10:44.860Z,19.66
2017-11-12T19:12:53.113Z,19.44
2017-11-12T19:15:05.127Z,19.46
2017-11-12T19:17:14.662Z,19.36
2017-11-12T19:19:23.998Z,19.41
2017-11-12T19:21:32.337Z,19.55
2017-11-12T19:23:40.377Z,19.52
2017-11-12T19:25:52.299Z,19.47
2017-11-12T19:28:05.673Z,19.47
2017-11-12T19:30:13.741Z,19.58
2017-11-12T19:32:20.801Z,19.20
2017-11-12T19:34:27.190Z,19.32
2017-11-12T19:36:35.454Z,19.33
2017-11-12T19:38:54.322Z,19.66
2017-11-12T19:45:55.275Z,19.22
2017-11-12T19:48:04.323Z,19.50
2017-11-12T19:50:11.054Z,19.49
2017-11-12T19:52:16.503Z,19.20
2017-11-12T19:54:24.316Z,19.23
2017-11-12T19:57:08.190Z,19.10
2017-11-12T19:59:14.991Z,18.83
2017-11-12T20:11:03.629Z,19.15
2017-11-12T20:13:30.700Z,19.04
2017-11-12T20:16:02.146Z,18.96
2017-11-12T20:18:17.539Z,19.14
2017-11-12T20:20:23.343Z,19.35
2017-11-12T20:22:29.238Z,19.49
2017-11-12T20:24:35.228Z,19.36
2017-11-12T20:26:40.853Z,19.25
2017-11-12T20:28:47.261Z,18.90
2017-11-12T20:30:53.575Z,19.29
2017-11-12T20:42:44.165Z,19.39
2017-11-12T20:45:48.078Z,18.90
2017-11-12T20:48:43.617Z,18.69
2017-11-12T20:51:01.133Z,18.95
2017-11-12T22:55:26.520Z,18.83
2017-11-12T22:57:47.645Z,18.89
2017-11-12T22:59:56.140Z,19.00
2017-11-12T23:02:20.097Z,18.89
2017-11-12T23:04:29.733Z,18.91
2017-11-12T23:06:43.249Z,19.05
2017-11-12T23:09:21.363Z,18.91
2017-11-12T23:11:42.597Z,19.05
2017-11-12T23:16:25.579Z,18.95
2017-11-12T23:18:36.793Z,19.00
2017-11-12T23:20:44.381Z,18.96
2017-11-12T23:22:54.278Z,19.41
2017-11-12T23:25:07.301Z,18.79
2017-11-12T23:27:16.859Z,19.02
2017-11-12T23:29:24.727Z,19.15
2017-11-12T23:31:34.193Z,19.36
2017-11-12T23:33:45.566Z,19.46
2017-11-12T23:35:55.242Z,19.44
2017-11-12T23:38:02.800Z,19.45
2017-11-12T23:40:10.953Z,19.42
2017-11-12T23:42:21.681Z,19.44
2017-11-12T23:44:34.801Z,19.42
2017-11-12T23:46:40.446Z,19.45
2017-11-12T23:48:54.645Z,19.29
2017-11-12T23:53:31.217Z,19.14
2017-11-12T23:55:44.194Z,18.94
2017-11-12T23:57:55.991Z,19.49
